Terminal Aerodrome Forecast
Issued by NWS

Home | Current Version | Previous Version | Text Only | Print | Product List | Glossary On
Versions: 1 2 3 4 5 6 7 8 9 10 11 12 13 14 15 16 17 18 19 20
000
FTUS42 KFFC 191722
TAFFTY
TAF
KFTY 191722Z 1918/2018 33003KT P6SM OVC200
     FM200200 00000KT P6SM VCSH OVC070
     FM200500 00000KT 6SM -RA BR OVC050
     FM201200 00000KT 6SM -RA BR OVC025
     FM201400 00000KT P6SM VCSH OVC028=

USA.gov is the U.S. government's official web portal to all federal, state and local government web resources and services.